Time;durP1;ratioP1;P1;durP2;ratioP2;P2;SDS_P1;SDS_P2;PMS_P1;PMS_P2;Temp;Humidity;BMP_temperature;BMP_pressure;BME280_temperature;BME280_humidity;BME280_pressure;Samples;Min_cycle;Max_cycle;Signal;HPM_P1;HPM_P2
2022/08/06 00:02:23;;;;;;;1.45;0.60;;;11.10;99.90;;;;;;5018280;28;20132;-81
2022/08/06 00:04:49;;;;;;;1.17;0.52;;;11.20;99.90;;;;;;5018708;28;20049;-78
2022/08/06 00:07:15;;;;;;;0.80;0.50;;;11.10;99.90;;;;;;5018153;28;20079;-78
2022/08/06 00:09:41;;;;;;;0.80;0.35;;;11.10;99.90;;;;;;5018526;28;20037;-78
2022/08/06 00:12:07;;;;;;;0.40;0.40;;;11.10;99.90;;;;;;5033704;28;20407;-78
2022/08/06 00:14:33;;;;;;;0.47;0.47;;;11.10;99.90;;;;;;5021525;28;20080;-78
2022/08/06 00:16:59;;;;;;;0.88;0.50;;;11.10;99.90;;;;;;5047086;28;20061;-78
2022/08/06 00:19:26;;;;;;;0.68;0.50;;;11.10;99.90;;;;;;5034408;28;20042;-79
2022/08/06 00:21:53;;;;;;;0.30;0.30;;;11.00;99.90;;;;;;5001863;28;20080;-79
2022/08/06 00:24:19;;;;;;;2.00;0.50;;;11.00;99.90;;;;;;5017906;28;20130;-79
2022/08/06 00:26:46;;;;;;;0.60;0.35;;;11.00;99.90;;;;;;5045831;28;20037;-78
2022/08/06 00:29:11;;;;;;;0.43;0.20;;;11.10;99.90;;;;;;5018206;28;20033;-78
2022/08/06 00:31:37;;;;;;;1.33;0.70;;;11.00;99.90;;;;;;5034409;28;20440;-79
2022/08/06 00:34:03;;;;;;;0.40;0.30;;;11.10;99.90;;;;;;5034388;28;20395;-79
2022/08/06 00:36:33;;;;;;;0.68;0.50;;;11.10;99.90;;;;;;5001608;28;20120;-79
2022/08/06 00:39:03;;;;;;;0.60;0.60;;;11.20;99.90;;;;;;5032720;28;20045;-78
2022/08/06 00:41:29;;;;;;;1.00;0.57;;;11.10;99.90;;;;;;5016605;28;20156;-78
2022/08/06 00:43:56;;;;;;;0.35;0.30;;;11.10;99.90;;;;;;5016789;28;20053;-79
2022/08/06 00:46:22;;;;;;;0.45;0.40;;;11.10;99.90;;;;;;5033573;28;20041;-79
2022/08/06 00:48:48;;;;;;;0.43;0.40;;;11.10;99.90;;;;;;5016603;28;20083;-79
2022/08/06 00:51:14;;;;;;;1.25;0.70;;;11.10;99.90;;;;;;5031698;28;20046;-79
2022/08/06 00:53:40;;;;;;;0.40;0.40;;;11.10;99.90;;;;;;5034165;28;20516;-81
2022/08/06 00:56:07;;;;;;;0.88;0.47;;;11.00;99.90;;;;;;5017535;28;20033;-81
2022/08/06 00:58:33;;;;;;;0.70;0.50;;;11.00;99.90;;;;;;5033895;28;20380;-81
2022/08/06 01:00:58;;;;;;;1.75;0.47;;;10.90;99.90;;;;;;5033518;28;20049;-81
2022/08/06 01:03:24;;;;;;;0.45;0.38;;;10.90;99.90;;;;;;5033050;28;20061;-81
2022/08/06 01:05:50;;;;;;;0.82;0.50;;;11.10;99.90;;;;;;5033949;28;20037;-81
2022/08/06 01:08:16;;;;;;;0.88;0.45;;;10.90;99.90;;;;;;5033810;28;20052;-81
2022/08/06 01:10:42;;;;;;;0.40;0.40;;;10.90;99.90;;;;;;5032633;28;20041;-81
2022/08/06 01:13:08;;;;;;;0.35;0.30;;;10.80;99.90;;;;;;5032970;28;20523;-81
2022/08/06 01:15:37;;;;;;;0.93;0.50;;;10.80;99.90;;;;;;5028206;28;20116;-81
2022/08/06 01:18:09;;;;;;;1.13;0.60;;;10.70;99.90;;;;;;5033220;28;20073;-80
2022/08/06 01:21:13;;;;;;;1.08;0.40;;;10.80;99.90;;;;;;5033656;28;20056;-80
2022/08/06 01:23:38;;;;;;;0.57;0.52;;;10.70;99.90;;;;;;5033428;28;20049;-80
2022/08/06 01:26:22;;;;;;;0.52;0.50;;;10.70;99.90;;;;;;5033247;28;20053;-81
2022/08/06 01:29:08;;;;;;;0.50;0.50;;;10.70;99.90;;;;;;5015947;28;20041;-81
2022/08/06 01:31:44;;;;;;;0.40;0.40;;;10.60;99.90;;;;;;5017206;28;20132;-81
2022/08/06 01:34:36;;;;;;;0.77;0.40;;;10.60;99.90;;;;;;5033629;28;20095;-81
2022/08/06 01:37:22;;;;;;;0.63;0.60;;;10.60;99.90;;;;;;5033581;28;20388;-81
2022/08/06 01:39:58;;;;;;;0.47;0.47;;;10.60;99.90;;;;;;5016728;28;20111;-81
2022/08/06 01:42:26;;;;;;;0.45;0.43;;;10.50;99.90;;;;;;5032217;28;20124;-81
2022/08/06 01:44:54;;;;;;;1.75;0.63;;;10.60;99.90;;;;;;5032520;28;20522;-81
2022/08/06 01:47:21;;;;;;;0.88;0.60;;;10.50;99.90;;;;;;5016542;28;20048;-81
2022/08/06 01:49:54;;;;;;;0.73;0.50;;;10.80;99.90;;;;;;5032946;28;20107;-80
2022/08/06 01:52:23;;;;;;;0.50;0.50;;;10.50;99.90;;;;;;5032706;28;20107;-80
2022/08/06 01:54:52;;;;;;;0.52;0.52;;;10.50;99.90;;;;;;5032090;28;20514;-81
2022/08/06 01:57:20;;;;;;;0.45;0.45;;;10.50;99.90;;;;;;5015194;28;20048;-81
2022/08/06 01:59:50;;;;;;;0.65;0.60;;;10.40;99.90;;;;;;5017084;28;20431;-79
2022/08/06 02:02:20;;;;;;;0.75;0.35;;;10.40;99.90;;;;;;5015383;28;20116;-78
2022/08/06 02:04:50;;;;;;;0.57;0.43;;;10.40;99.90;;;;;;5018890;28;20037;-78
2022/08/06 02:07:19;;;;;;;1.23;0.50;;;10.40;99.90;;;;;;5031464;28;20521;-78
2022/08/06 02:09:47;;;;;;;0.68;0.50;;;10.60;99.90;;;;;;5032916;28;20050;-78
2022/08/06 02:12:25;;;;;;;0.43;0.40;;;10.30;99.90;;;;;;5032765;28;20357;-78
2022/08/06 02:14:55;;;;;;;0.57;0.50;;;10.30;99.90;;;;;;5031659;28;20484;-78
2022/08/06 02:17:26;;;;;;;0.45;0.43;;;10.40;99.90;;;;;;5032757;28;20048;-78
2022/08/06 02:19:55;;;;;;;1.88;0.80;;;10.30;99.90;;;;;;5030514;28;20487;-78
2022/08/06 02:22:22;;;;;;;3.50;0.57;;;10.30;99.90;;;;;;5015878;28;20384;-78
2022/08/06 02:24:49;;;;;;;0.50;0.45;;;10.30;99.90;;;;;;5032406;28;20088;-79
2022/08/06 02:27:17;;;;;;;1.35;0.47;;;10.30;99.90;;;;;;5032476;28;20100;-78
2022/08/06 02:29:44;;;;;;;0.50;0.50;;;10.30;99.90;;;;;;5032636;28;20399;-79
2022/08/06 02:32:11;;;;;;;0.95;0.73;;;10.30;99.90;;;;;;5031388;28;20030;-78
2022/08/06 02:34:37;;;;;;;0.52;0.52;;;10.30;99.90;;;;;;4999735;28;20376;-80
2022/08/06 02:37:29;;;;;;;0.50;0.50;;;10.20;99.90;;;;;;5015455;28;20138;-80
2022/08/06 02:40:00;;;;;;;0.65;0.52;;;10.20;99.90;;;;;;5015773;28;20240;-80
2022/08/06 02:42:48;;;;;;;1.65;0.50;;;10.20;99.90;;;;;;5032996;28;20048;-80
2022/08/06 02:45:28;;;;;;;0.73;0.50;;;10.20;99.90;;;;;;5032360;28;20376;-80
2022/08/06 02:48:07;;;;;;;1.83;0.77;;;10.20;99.90;;;;;;5015892;28;20045;-81
2022/08/06 02:50:35;;;;;;;1.33;0.80;;;10.20;99.90;;;;;;5032072;28;20036;-81
2022/08/06 02:53:13;;;;;;;0.80;0.40;;;10.20;99.90;;;;;;5032074;28;20045;-81
2022/08/06 02:55:44;;;;;;;0.73;0.40;;;10.20;99.90;;;;;;5009026;28;20431;-81
2022/08/06 02:58:33;;;;;;;1.13;0.60;;;10.20;99.90;;;;;;5027863;28;20391;-81
2022/08/06 03:01:02;;;;;;;0.43;0.32;;;10.20;99.90;;;;;;5034360;28;20471;-81
2022/08/06 03:03:28;;;;;;;1.45;0.60;;;10.20;99.90;;;;;;5035565;28;20060;-81
2022/08/06 03:06:00;;;;;;;1.33;0.65;;;10.10;99.90;;;;;;5035557;28;20053;-81
2022/08/06 03:08:27;;;;;;;0.85;0.70;;;10.10;99.90;;;;;;5018848;28;20041;-79
2022/08/06 03:10:55;;;;;;;1.80;0.70;;;10.10;99.90;;;;;;5034204;28;20048;-79
2022/08/06 03:13:22;;;;;;;0.50;0.50;;;10.20;99.90;;;;;;5035559;28;20080;-79
2022/08/06 03:15:49;;;;;;;1.48;0.85;;;10.10;99.90;;;;;;5049111;28;20066;-79
2022/08/06 03:18:16;;;;;;;1.70;0.93;;;10.10;99.90;;;;;;5055034;28;20052;-79
2022/08/06 03:20:43;;;;;;;0.82;0.70;;;10.10;99.90;;;;;;5054982;28;20079;-79
2022/08/06 03:23:11;;;;;;;1.05;0.80;;;10.10;99.90;;;;;;5033335;28;20087;-78
2022/08/06 03:25:39;;;;;;;1.02;0.90;;;10.10;99.90;;;;;;5035237;28;20052;-79
2022/08/06 03:28:05;;;;;;;0.75;0.57;;;10.10;99.90;;;;;;5035360;28;20131;-79
2022/08/06 03:30:33;;;;;;;0.77;0.70;;;10.10;99.90;;;;;;5035117;28;20072;-79
2022/08/06 03:33:10;;;;;;;3.15;1.17;;;10.00;99.90;;;;;;5035293;28;20045;-79
2022/08/06 03:35:36;;;;;;;0.70;0.70;;;10.00;99.90;;;;;;5036471;28;20140;-79
2022/08/06 03:38:03;;;;;;;1.10;0.68;;;10.00;99.90;;;;;;5005888;28;20047;-78
2022/08/06 03:40:31;;;;;;;1.23;0.82;;;10.00;99.90;;;;;;5038597;28;20068;-81
2022/08/06 03:42:57;;;;;;;0.70;0.70;;;10.00;99.90;;;;;;5022312;28;20043;-81
2022/08/06 03:45:25;;;;;;;0.77;0.63;;;10.00;99.90;;;;;;5036139;28;20406;-81
2022/08/06 03:47:56;;;;;;;0.77;0.63;;;10.20;99.90;;;;;;5021239;28;20041;-81
2022/08/06 03:50:28;;;;;;;2.15;1.05;;;10.10;99.90;;;;;;5038403;28;20037;-81
2022/08/06 03:53:03;;;;;;;1.45;0.95;;;10.10;99.90;;;;;;5038317;28;20052;-81
2022/08/06 03:55:33;;;;;;;0.75;0.75;;;10.20;99.90;;;;;;5038669;28;20041;-81
2022/08/06 03:58:04;;;;;;;2.33;0.70;;;10.20;99.90;;;;;;5020696;28;20055;-81
2022/08/06 04:00:38;;;;;;;1.48;0.60;;;10.30;99.90;;;;;;5036934;28;20053;-81
2022/08/06 04:03:05;;;;;;;1.10;0.75;;;10.20;99.90;;;;;;5021920;28;20045;-81
2022/08/06 04:05:33;;;;;;;0.57;0.47;;;10.30;99.90;;;;;;5021935;28;20103;-81
2022/08/06 04:08:09;;;;;;;0.93;0.80;;;10.30;99.90;;;;;;5037565;28;20127;-81
2022/08/06 04:10:36;;;;;;;;;;;10.40;99.90;;;;;;5021966;28;20380;-81
2022/08/06 04:13:07;;;;;;;1.73;1.35;;;10.50;99.90;;;;;;5037741;28;20421;-81
2022/08/06 04:15:35;;;;;;;1.20;0.77;;;10.50;99.90;;;;;;5021599;28;20485;-81
2022/08/06 04:18:02;;;;;;;1.23;0.55;;;10.50;99.90;;;;;;5014006;28;20112;-81
2022/08/06 04:20:31;;;;;;;1.42;0.90;;;10.80;99.90;;;;;;5037894;28;20049;-81
2022/08/06 04:22:57;;;;;;;0.63;0.63;;;10.50;99.90;;;;;;5021415;28;20041;-81
2022/08/06 04:25:24;;;;;;;1.63;0.70;;;10.60;99.90;;;;;;5016971;28;20095;-81
2022/08/06 04:27:51;;;;;;;0.40;0.40;;;10.60;99.90;;;;;;5023967;28;20041;-81
2022/08/06 04:30:17;;;;;;;1.05;0.80;;;10.60;99.90;;;;;;5021322;28;20041;-78
2022/08/06 04:32:45;;;;;;;1.20;0.68;;;10.60;99.90;;;;;;5037589;28;20133;-78
2022/08/06 04:35:11;;;;;;;1.40;0.80;;;10.60;99.90;;;;;;5021147;28;20037;-78
2022/08/06 04:37:38;;;;;;;2.50;0.63;;;10.60;99.90;;;;;;5036204;28;20178;-78
2022/08/06 04:40:06;;;;;;;1.63;1.10;;;10.60;99.90;;;;;;5036842;28;20045;-78
2022/08/06 04:42:32;;;;;;;1.17;0.68;;;10.60;99.90;;;;;;5020975;28;20056;-78
2022/08/06 04:44:58;;;;;;;2.45;0.82;;;10.70;99.90;;;;;;5037387;28;20033;-78
2022/08/06 04:47:25;;;;;;;2.35;0.85;;;10.90;99.90;;;;;;5037261;28;20053;-78
2022/08/06 04:49:51;;;;;;;0.90;0.52;;;11.00;99.90;;;;;;5003287;28;20025;-78
2022/08/06 04:52:21;;;;;;;0.38;0.38;;;11.30;99.90;;;;;;5020093;28;20387;-78
2022/08/06 04:54:47;;;;;;;1.73;0.82;;;11.60;99.90;;;;;;5021249;28;20490;-78
2022/08/06 04:57:13;;;;;;;1.45;0.90;;;11.90;99.90;;;;;;5004478;28;20033;-78
2022/08/06 04:59:38;;;;;;;0.82;0.73;;;12.10;99.90;;;;;;5036779;28;20438;-78
2022/08/06 05:02:04;;;;;;;1.15;0.73;;;12.30;99.90;;;;;;5035979;28;20055;-78
2022/08/06 05:04:31;;;;;;;2.03;0.93;;;12.40;99.90;;;;;;5021048;28;20049;-81
2022/08/06 05:07:05;;;;;;;0.73;0.73;;;12.50;99.90;;;;;;5036877;28;20124;-81
2022/08/06 05:09:31;;;;;;;1.23;0.98;;;12.60;99.90;;;;;;5020042;28;20055;-81
2022/08/06 05:12:01;;;;;;;1.92;0.77;;;12.70;99.90;;;;;;5020172;28;20483;-81
2022/08/06 05:14:42;;;;;;;1.30;1.20;;;12.70;99.90;;;;;;5039088;28;20082;-81
2022/08/06 05:17:13;;;;;;;0.95;0.77;;;12.70;99.90;;;;;;5040064;28;20482;-81
2022/08/06 05:19:45;;;;;;;1.55;1.10;;;12.70;99.90;;;;;;5053098;28;20494;-81
2022/08/06 05:22:15;;;;;;;2.17;1.30;;;12.60;99.90;;;;;;5036882;28;20048;-81
2022/08/06 05:24:41;;;;;;;2.75;1.38;;;12.60;99.90;;;;;;5035764;28;20394;-81
2022/08/06 05:27:10;;;;;;;1.20;1.10;;;13.30;99.90;;;;;;5016615;28;20053;-81
2022/08/06 05:29:36;;;;;;;2.92;1.88;;;13.40;99.90;;;;;;5000518;28;20199;-81
2022/08/06 05:32:02;;;;;;;1.05;0.93;;;15.30;99.90;;;;;;5036147;28;20087;-81
2022/08/06 05:34:28;;;;;;;1.77;1.10;;;16.00;99.90;;;;;;5019294;28;20057;-81
2022/08/06 05:36:54;;;;;;;2.75;1.17;;;15.90;99.90;;;;;;5020714;28;20355;-81
2022/08/06 05:39:20;;;;;;;1.00;0.73;;;16.30;99.90;;;;;;5036216;28;20045;-81
2022/08/06 05:41:46;;;;;;;1.35;1.00;;;16.30;99.90;;;;;;5036551;28;20045;-81
2022/08/06 05:44:12;;;;;;;1.05;0.95;;;16.00;99.90;;;;;;5034811;28;20036;-81
2022/08/06 05:46:42;;;;;;;1.17;0.77;;;15.80;99.90;;;;;;5036694;28;20123;-82
2022/08/06 05:49:13;;;;;;;2.92;0.95;;;15.70;99.90;;;;;;5036485;28;20475;-81
2022/08/06 05:52:15;;;;;;;0.80;0.60;;;16.20;99.90;;;;;;5036058;28;20048;-81
2022/08/06 05:54:52;;;;;;;1.33;0.85;;;16.60;99.90;;;;;;5020961;28;20126;-82
2022/08/06 05:57:41;;;;;;;0.88;0.52;;;16.40;99.90;;;;;;5035763;28;20028;-82
2022/08/06 06:00:10;;;;;;;1.80;0.80;;;16.30;99.90;;;;;;5036179;28;20052;-81
2022/08/06 06:02:40;;;;;;;0.82;0.75;;;17.80;99.90;;;;;;5035675;28;20443;-82
2022/08/06 06:05:07;;;;;;;0.93;0.68;;;19.40;99.90;;;;;;5018622;28;20040;-81
2022/08/06 06:07:33;;;;;;;0.40;0.40;;;20.90;99.90;;;;;;5019751;28;20438;-82
2022/08/06 06:10:02;;;;;;;0.85;0.55;;;22.10;99.90;;;;;;5036468;28;20356;-82
2022/08/06 06:12:29;;;;;;;2.97;0.60;;;23.00;99.90;;;;;;5008415;28;20077;-81
2022/08/06 06:14:56;;;;;;;0.40;0.40;;;23.90;99.20;;;;;;5030306;28;20045;-82
2022/08/06 06:17:31;;;;;;;0.25;0.25;;;24.60;97.00;;;;;;5017642;28;20102;-81
2022/08/06 06:19:57;;;;;;;2.03;0.30;;;25.40;96.50;;;;;;5016655;28;20041;-81
2022/08/06 06:22:34;;;;;;;1.83;0.40;;;25.90;94.20;;;;;;5031122;28;20037;-81
2022/08/06 06:25:27;;;;;;;1.42;0.50;;;26.20;94.10;;;;;;5026037;28;20380;-81
2022/08/06 06:28:05;;;;;;;0.47;0.40;;;26.70;92.50;;;;;;5013871;28;20399;-82
2022/08/06 06:30:46;;;;;;;0.77;0.40;;;27.10;91.40;;;;;;5039202;28;20844;-82
2022/08/06 06:33:19;;;;;;;1.10;0.52;;;27.40;91.00;;;;;;5035339;28;20076;-82
2022/08/06 06:35:56;;;;;;;4.07;0.60;;;27.80;91.10;;;;;;5035896;28;20395;-82
2022/08/06 06:38:29;;;;;;;1.23;0.50;;;28.30;89.50;;;;;;5000211;28;20116;-82
2022/08/06 06:41:18;;;;;;;0.57;0.40;;;28.50;89.80;;;;;;5016126;28;20438;-82
2022/08/06 06:43:50;;;;;;;0.30;0.22;;;28.60;88.20;;;;;;5009702;28;20029;-82
2022/08/06 06:46:28;;;;;;;0.68;0.50;;;28.70;86.50;;;;;;5035515;28;20485;-82
2022/08/06 06:49:00;;;;;;;2.45;0.82;;;28.80;85.50;;;;;;5019182;28;20459;-82
2022/08/06 06:51:36;;;;;;;0.63;0.38;;;28.80;84.30;;;;;;5019201;28;20053;-82
2022/08/06 06:54:02;;;;;;;2.75;0.88;;;29.20;85.60;;;;;;5030207;28;20041;-82
2022/08/06 06:56:36;;;;;;;0.68;0.30;;;29.50;84.20;;;;;;5034984;28;20044;-82
2022/08/06 06:59:08;;;;;;;2.92;0.60;;;29.80;84.00;;;;;;5018857;28;20048;-83
2022/08/06 07:01:34;;;;;;;2.28;0.77;;;30.50;82.00;;;;;;5025535;28;20492;-80
2022/08/06 07:04:05;;;;;;;2.00;1.02;;;29.60;79.90;;;;;;5003632;28;20112;-80
2022/08/06 07:06:32;;;;;;;1.90;0.70;;;28.70;81.60;;;;;;5031534;28;20079;-80
2022/08/06 07:08:59;;;;;;;1.10;0.70;;;27.60;82.00;;;;;;5016818;28;20079;-80
2022/08/06 07:11:27;;;;;;;0.80;0.47;;;28.30;84.50;;;;;;5030639;28;20049;-80
2022/08/06 07:13:55;;;;;;;2.08;0.50;;;28.80;83.40;;;;;;5001410;28;20461;-80
2022/08/06 07:16:23;;;;;;;2.10;0.75;;;29.00;82.40;;;;;;5020574;23;20077;-83
2022/08/06 07:18:53;;;;;;;0.77;0.65;;;29.50;80.00;;;;;;5019525;28;20434;-83
2022/08/06 07:21:20;;;;;;;1.23;0.45;;;29.70;80.90;;;;;;5018925;28;20088;-83
2022/08/06 07:23:51;;;;;;;1.77;0.75;;;30.20;79.90;;;;;;5018889;28;20049;-83
2022/08/06 07:26:23;;;;;;;1.42;0.80;;;30.40;78.70;;;;;;5017480;28;20049;-83
2022/08/06 07:28:50;;;;;;;1.45;0.80;;;30.40;78.40;;;;;;5018830;28;20041;-82
2022/08/06 07:31:16;;;;;;;1.83;0.80;;;30.60;80.10;;;;;;5002597;28;20391;-82
2022/08/06 07:33:45;;;;;;;1.40;0.93;;;30.70;77.30;;;;;;5035664;28;20033;-83
2022/08/06 07:36:15;;;;;;;1.38;0.70;;;30.90;77.70;;;;;;5017874;28;20052;-83
2022/08/06 07:38:46;;;;;;;2.92;1.10;;;31.00;76.70;;;;;;5003846;28;20483;-83
2022/08/06 07:41:14;;;;;;;2.38;0.80;;;31.30;76.70;;;;;;5001958;28;20045;-82
2022/08/06 07:43:53;;;;;;;0.85;0.52;;;30.90;71.60;;;;;;5018821;28;20095;-83
2022/08/06 07:46:54;;;;;;;0.95;0.60;;;30.90;72.50;;;;;;5018160;28;20044;-83
2022/08/06 07:49:23;;;;;;;1.35;0.80;;;31.00;74.00;;;;;;4967980;28;20346;-83
2022/08/06 07:51:52;;;;;;;2.00;0.80;;;31.20;72.60;;;;;;4999138;28;20041;-83
2022/08/06 07:54:18;;;;;;;2.28;0.85;;;31.10;70.80;;;;;;5006100;28;20131;-83
2022/08/06 07:56:44;;;;;;;1.02;0.90;;;31.30;72.10;;;;;;5018157;28;20460;-83
2022/08/06 07:59:11;;;;;;;1.63;0.85;;;31.60;71.60;;;;;;4998985;28;20038;-83
2022/08/06 08:01:38;;;;;;;2.35;0.70;;;31.90;71.70;;;;;;4999339;28;20109;-83
2022/08/06 08:06:54;;;;;;;1.42;0.60;;;31.10;68.70;;;;;;5007036;28;20103;-80
2022/08/06 08:09:23;;;;;;;0.82;0.45;;;29.90;70.80;;;;;;5001253;28;20056;-80
2022/08/06 08:11:50;;;;;;;0.95;0.60;;;28.50;72.80;;;;;;5018020;28;20041;-80
2022/08/06 08:14:19;;;;;;;2.20;0.77;;;27.30;75.70;;;;;;5018292;28;20045;-80
2022/08/06 08:16:45;;;;;;;2.70;0.93;;;27.80;76.20;;;;;;5034078;28;20415;-80
2022/08/06 08:19:24;;;;;;;1.50;0.70;;;28.80;76.00;;;;;;5014811;28;20069;-80
2022/08/06 08:21:53;;;;;;;1.27;0.60;;;30.00;72.90;;;;;;5017275;28;20080;-80
2022/08/06 08:24:19;;;;;;;1.23;0.75;;;30.80;71.20;;;;;;5001940;28;20041;-80
2022/08/06 08:26:44;;;;;;;1.10;0.60;;;31.90;72.00;;;;;;5017146;28;20045;-80
2022/08/06 08:29:12;;;;;;;1.05;0.68;;;32.00;70.80;;;;;;5000691;28;20065;-80
2022/08/06 08:31:37;;;;;;;3.20;0.85;;;32.60;71.50;;;;;;5016694;28;20042;-80
2022/08/06 08:34:03;;;;;;;1.27;0.75;;;32.90;69.00;;;;;;5017279;28;20049;-81
2022/08/06 08:36:29;;;;;;;0.80;0.60;;;32.90;66.80;;;;;;5016737;28;20033;-81
2022/08/06 08:38:57;;;;;;;1.08;0.70;;;32.90;67.10;;;;;;5000575;28;20081;-80
2022/08/06 08:41:31;;;;;;;0.82;0.60;;;33.10;65.90;;;;;;5000617;28;20041;-80
2022/08/06 08:44:01;;;;;;;1.23;0.70;;;33.30;64.40;;;;;;5017075;28;20045;-80
2022/08/06 08:46:27;;;;;;;1.33;0.85;;;33.60;65.50;;;;;;5004905;28;20092;-80
2022/08/06 08:48:57;;;;;;;2.97;1.10;;;33.10;65.50;;;;;;5010462;28;20044;-80
2022/08/06 08:51:25;;;;;;;1.10;0.82;;;33.50;64.50;;;;;;5016873;28;20117;-80
2022/08/06 08:53:55;;;;;;;1.40;0.50;;;33.40;64.00;;;;;;5001159;28;20037;-80
2022/08/06 08:56:22;;;;;;;0.88;0.50;;;33.50;65.00;;;;;;5000826;28;20041;-80
2022/08/06 08:58:48;;;;;;;2.22;0.95;;;32.80;63.70;;;;;;5001531;28;20040;-80
2022/08/06 09:01:16;;;;;;;1.35;1.05;;;31.60;65.00;;;;;;5016653;28;20037;-80
2022/08/06 09:03:43;;;;;;;1.50;0.80;;;30.30;66.50;;;;;;5016805;28;20085;-80
2022/08/06 09:06:09;;;;;;;1.67;0.88;;;28.20;69.90;;;;;;5000986;28;20064;-80
2022/08/06 09:08:36;;;;;;;4.00;0.82;;;26.80;72.80;;;;;;5016730;28;20451;-80
2022/08/06 09:11:03;;;;;;;1.50;0.88;;;25.50;74.50;;;;;;5011733;28;20546;-80
2022/08/06 09:13:29;;;;;;;1.38;1.00;;;24.80;74.50;;;;;;5008259;28;20091;-82
2022/08/06 09:15:56;;;;;;;1.50;0.68;;;24.00;76.70;;;;;;5016824;28;20092;-82
2022/08/06 09:18:24;;;;;;;0.90;0.57;;;23.60;78.00;;;;;;5033640;28;20049;-82
2022/08/06 09:20:50;;;;;;;1.48;0.88;;;23.20;78.60;;;;;;5000357;28;20132;-82
2022/08/06 09:23:16;;;;;;;2.30;1.10;;;22.90;79.10;;;;;;5000159;28;20464;-83
2022/08/06 09:25:49;;;;;;;3.33;1.20;;;22.80;80.40;;;;;;5016546;28;20388;-82
2022/08/06 09:28:35;;;;;;;2.63;1.35;;;22.50;80.70;;;;;;4999457;28;20050;-83
2022/08/06 09:31:12;;;;;;;2.00;0.77;;;22.80;83.10;;;;;;5016799;28;20053;-82
2022/08/06 09:33:42;;;;;;;3.13;0.93;;;24.50;79.10;;;;;;5015397;28;20049;-83
2022/08/06 09:36:13;;;;;;;0.82;0.80;;;26.20;76.50;;;;;;5016391;28;20045;-83
2022/08/06 09:38:53;;;;;;;1.73;0.73;;;28.20;75.70;;;;;;5017022;28;20048;-83
2022/08/06 09:41:23;;;;;;;3.10;1.20;;;29.70;70.10;;;;;;5032665;28;20479;-83
2022/08/06 09:43:53;;;;;;;1.33;0.70;;;30.80;67.10;;;;;;5000018;28;20045;-83
2022/08/06 09:46:43;;;;;;;2.33;1.10;;;31.10;68.00;;;;;;5015878;28;20049;-83
2022/08/06 09:49:11;;;;;;;2.85;1.05;;;31.40;66.40;;;;;;5016191;28;20037;-83
2022/08/06 09:51:37;;;;;;;2.10;0.77;;;31.20;67.30;;;;;;5016602;28;20045;-83
2022/08/06 09:54:05;;;;;;;0.80;0.77;;;31.50;67.40;;;;;;5000186;28;20052;-83
2022/08/06 09:56:31;;;;;;;1.05;0.75;;;31.90;66.90;;;;;;4999667;28;20091;-83
2022/08/06 09:58:59;;;;;;;0.95;0.80;;;32.40;66.70;;;;;;5016362;28;20048;-83
2022/08/06 10:01:25;;;;;;;2.97;1.13;;;32.00;64.40;;;;;;5015527;28;20157;-83
2022/08/06 10:03:53;;;;;;;2.05;1.08;;;30.50;65.00;;;;;;5000010;28;20036;-81
2022/08/06 10:06:20;;;;;;;1.30;0.80;;;29.30;67.60;;;;;;5015824;28;20127;-81
2022/08/06 10:08:48;;;;;;;4.25;1.20;;;28.10;66.50;;;;;;5016014;28;20045;-81
2022/08/06 10:11:14;;;;;;;2.72;1.17;;;27.30;69.40;;;;;;4999317;28;20044;-80
2022/08/06 10:13:47;;;;;;;1.42;0.90;;;27.70;71.10;;;;;;5015841;28;20030;-80
2022/08/06 10:16:19;;;;;;;1.85;1.10;;;28.70;69.80;;;;;;4997773;28;20408;-81
2022/08/06 10:18:47;;;;;;;2.15;1.05;;;29.30;70.00;;;;;;5008125;28;20434;-81
2022/08/06 10:21:22;;;;;;;2.50;1.15;;;30.00;68.50;;;;;;5015649;28;20038;-81
2022/08/06 10:23:50;;;;;;;2.47;1.10;;;30.70;68.70;;;;;;5015801;28;20080;-81
2022/08/06 10:26:25;;;;;;;2.08;1.17;;;31.50;65.70;;;;;;4999569;28;20113;-81
2022/08/06 10:28:52;;;;;;;1.70;1.20;;;32.30;64.50;;;;;;5015513;28;20116;-81
2022/08/06 10:31:18;;;;;;;1.67;1.17;;;32.50;62.70;;;;;;5015845;28;20620;-81
2022/08/06 10:34:12;;;;;;;2.10;1.15;;;32.90;62.90;;;;;;4999293;28;20045;-81
2022/08/06 10:36:44;;;;;;;2.13;1.30;;;33.00;62.70;;;;;;5000417;28;20037;-81
2022/08/06 10:39:12;;;;;;;1.13;0.90;;;33.70;66.80;;;;;;5015618;28;20049;-81
2022/08/06 10:41:40;;;;;;;2.78;1.30;;;33.70;62.40;;;;;;5015975;28;20081;-81
2022/08/06 10:44:07;;;;;;;2.60;1.35;;;32.50;62.80;;;;;;5017763;28;20045;-81
2022/08/06 10:46:33;;;;;;;1.95;1.25;;;30.90;63.80;;;;;;5019100;28;20041;-80
2022/08/06 10:49:00;;;;;;;1.45;0.90;;;29.30;65.80;;;;;;5019654;28;20130;-80
2022/08/06 10:51:26;;;;;;;2.60;1.25;;;28.40;68.20;;;;;;5013487;28;20037;-80
2022/08/06 10:53:54;;;;;;;3.08;1.13;;;27.40;68.40;;;;;;5002114;28;20513;-80
2022/08/06 10:56:19;;;;;;;1.65;1.08;;;26.80;70.50;;;;;;5017247;28;20041;-80
2022/08/06 10:58:45;;;;;;;1.92;1.02;;;25.90;71.30;;;;;;5000345;28;20517;-80
2022/08/06 11:01:35;;;;;;;2.65;1.40;;;25.50;72.70;;;;;;5018003;28;20574;-80
2022/08/06 11:04:20;;;;;;;1.73;0.93;;;25.20;73.40;;;;;;5005753;28;20485;-80
2022/08/06 11:07:10;;;;;;;3.63;1.50;;;25.20;74.50;;;;;;5013689;28;20140;-80
2022/08/06 11:10:04;;;;;;;2.15;1.42;;;25.70;73.60;;;;;;5025026;28;20061;-80
2022/08/06 11:12:49;;;;;;;2.78;1.13;;;27.10;73.30;;;;;;5021422;28;20050;-83
2022/08/06 11:15:16;;;;;;;2.25;1.50;;;28.30;73.70;;;;;;5016816;28;20088;-83
2022/08/06 11:17:47;;;;;;;3.45;1.40;;;29.40;71.10;;;;;;5020267;28;20121;-84
2022/08/06 11:20:31;;;;;;;3.45;1.40;;;30.60;68.90;;;;;;5017629;28;20041;-84
2022/08/06 11:22:58;;;;;;;4.68;1.60;;;30.70;67.40;;;;;;5018814;28;20037;-83
2022/08/06 11:25:42;;;;;;;1.30;0.90;;;30.60;68.70;;;;;;5002142;28;20041;-84
2022/08/06 11:28:10;;;;;;;3.63;1.38;;;30.70;66.80;;;;;;5017845;28;20076;-83
2022/08/06 11:30:53;;;;;;;2.10;0.98;;;30.80;68.40;;;;;;5002704;28;20049;-83
2022/08/06 11:33:39;;;;;;;2.38;1.40;;;30.40;66.30;;;;;;5010526;28;20037;-83
2022/08/06 11:36:05;;;;;;;;;;;30.00;68.80;;;;;;5001028;28;20137;-83
2022/08/06 11:38:46;;;;;;;2.42;1.20;;;29.80;68.40;;;;;;5033172;28;19917;-83
2022/08/06 11:41:22;;;;;;;2.55;0.95;;;28.50;69.50;;;;;;5017220;28;20129;-83
2022/08/06 11:43:52;;;;;;;2.33;1.20;;;27.60;70.20;;;;;;4996954;28;20427;-81
2022/08/06 11:46:27;;;;;;;1.38;0.88;;;27.70;71.70;;;;;;4999799;28;20099;-80
2022/08/06 11:48:59;;;;;;;2.35;1.23;;;28.20;73.60;;;;;;5001466;28;20369;-81
2022/08/06 11:51:59;;;;;;;1.40;0.88;;;28.30;71.70;;;;;;5017323;28;20045;-80
2022/08/06 11:54:43;;;;;;;1.48;0.95;;;28.10;69.80;;;;;;5018574;28;20037;-81
2022/08/06 11:57:18;;;;;;;1.92;1.10;;;28.50;71.00;;;;;;5011727;28;20034;-81
2022/08/06 11:59:49;;;;;;;1.42;0.80;;;29.00;65.60;;;;;;5012607;28;20044;-81
2022/08/06 12:02:41;;;;;;;2.17;0.88;;;28.90;66.60;;;;;;5000742;28;20387;-81
2022/08/06 12:05:07;;;;;;;1.42;0.90;;;29.40;66.10;;;;;;5022301;28;20045;-81
2022/08/06 12:07:36;;;;;;;2.75;0.90;;;29.20;68.80;;;;;;5018431;28;20607;-81
2022/08/06 12:10:05;;;;;;;2.10;1.27;;;28.80;68.10;;;;;;5000261;28;20054;-81
2022/08/06 12:12:52;;;;;;;1.08;0.73;;;28.50;67.20;;;;;;4994648;28;20041;-80
2022/08/06 12:15:23;;;;;;;1.40;0.90;;;28.50;68.10;;;;;;5000574;28;20040;-82
2022/08/06 12:17:58;;;;;;;1.42;0.90;;;28.90;70.30;;;;;;5035100;28;20045;-84
2022/08/06 12:20:31;;;;;;;1.13;0.80;;;29.00;69.80;;;;;;5034160;28;20553;-84
2022/08/06 12:22:59;;;;;;;1.55;1.10;;;28.60;68.90;;;;;;5018184;28;20037;-84
2022/08/06 12:25:39;;;;;;;1.38;0.85;;;28.30;69.10;;;;;;5017882;28;20037;-84
2022/08/06 12:28:09;;;;;;;2.05;0.98;;;27.80;70.00;;;;;;5018332;28;20045;-84
2022/08/06 12:30:52;;;;;;;1.63;1.13;;;27.30;71.00;;;;;;5017641;28;20041;-84
2022/08/06 12:33:19;;;;;;;2.50;1.10;;;26.70;69.20;;;;;;4996878;28;20052;-84
2022/08/06 12:36:00;;;;;;;1.33;0.82;;;26.90;73.40;;;;;;4986221;28;20411;-84
2022/08/06 12:38:29;;;;;;;1.85;1.15;;;27.50;71.10;;;;;;5017638;28;20492;-84
2022/08/06 12:41:00;;;;;;;1.58;0.82;;;27.40;69.00;;;;;;5017228;28;20042;-84
2022/08/06 12:43:28;;;;;;;1.77;1.02;;;27.00;69.20;;;;;;5017462;28;20129;-84
2022/08/06 12:46:06;;;;;;;2.88;1.00;;;26.60;70.40;;;;;;5017707;28;20466;-84
2022/08/06 12:48:34;;;;;;;2.25;1.35;;;26.60;71.20;;;;;;5017866;28;20439;-84
2022/08/06 12:51:13;;;;;;;3.05;1.40;;;27.00;69.70;;;;;;5016858;28;20380;-84
2022/08/06 12:53:50;;;;;;;2.25;1.30;;;27.30;69.70;;;;;;5017020;28;20041;-85
2022/08/06 12:56:18;;;;;;;3.42;1.17;;;27.50;68.70;;;;;;5015847;28;20172;-84
2022/08/06 12:58:44;;;;;;;2.05;1.10;;;27.30;68.60;;;;;;5017274;28;20419;-84
2022/08/06 13:01:14;;;;;;;2.22;1.30;;;27.40;70.90;;;;;;5001127;28;20476;-84
2022/08/06 13:03:43;;;;;;;2.47;1.40;;;27.40;66.80;;;;;;5001086;28;20530;-85
2022/08/06 13:06:09;;;;;;;1.63;0.95;;;27.20;69.90;;;;;;5000198;28;20044;-84
2022/08/06 13:08:37;;;;;;;0.98;0.80;;;27.30;69.60;;;;;;5017759;28;20084;-84
2022/08/06 13:11:03;;;;;;;1.92;1.30;;;27.30;70.50;;;;;;5017289;28;20045;-84